Terminal Aerodrome Forecast
Issued by NWS

Home | Current Version | Previous Version | Text Only | Print | Product List | Glossary On
Versions: 1 2 3 4 5 6 7 8 9 10 11 12 13 14 15 16 17
000
FTAK31 PAJN 291919 AAA
TAFAPG
TAF AMD
PAPG 291919Z 2919/3018 VRB05KT P6SM -SHRA SCT004 SCT012 OVC035
      TEMPO 2919/2921 6SM -SHRA BR SCT004 OVC025
     FM292200 VRB05KT P6SM -SHRA FEW015 SCT035 OVC050
     FM300200 VRB03KT P6SM VCSH FEW035 OVC060
     FM300700 VRB03KT P6SM SCT025 OVC040
     FM301600 VRB03KT P6SM VCSH BKN050 OVC070=

USA.gov is the U.S. government's official web portal to all federal, state and local government web resources and services.